createdAt,value
2022-12-18T00:00:05.271Z,126.70
2022-12-18T00:02:57.543Z,129.93
2022-12-18T00:05:51.019Z,129.63
2022-12-18T00:08:37.538Z,131.50
2022-12-18T00:11:25.093Z,117.90
2022-12-18T00:14:13.032Z,118.07
2022-12-18T00:16:58.479Z,115.60
2022-12-18T00:19:44.877Z,109.93
2022-12-18T00:22:30.333Z,110.67
2022-12-18T00:25:16.249Z,104.33
2022-12-18T00:28:02.130Z,117.10
2022-12-18T00:30:48.034Z,126.07
2022-12-18T00:33:33.716Z,114.63
2022-12-18T00:36:21.977Z,109.33
2022-12-18T00:39:07.753Z,106.37
2022-12-18T00:41:53.289Z,108.00
2022-12-18T00:44:39.262Z,107.00
2022-12-18T00:47:24.891Z,106.43
2022-12-18T00:50:10.754Z,108.80
2022-12-18T01:00:17.964Z,109.97
2022-12-18T01:03:14.339Z,94.73
2022-12-18T01:06:12.835Z,87.67
2022-12-18T01:08:58.743Z,80.60
2022-12-18T01:11:44.528Z,81.13
2022-12-18T01:14:30.286Z,100.77
2022-12-18T01:17:15.852Z,99.13
2022-12-18T01:20:02.095Z,100.80
2022-12-18T01:22:47.245Z,83.93
2022-12-18T01:25:34.345Z,78.37
2022-12-18T01:28:20.072Z,85.57
2022-12-18T01:31:27.485Z,88.53
2022-12-18T01:34:13.562Z,90.33
2022-12-18T01:36:59.000Z,85.80
2022-12-18T01:39:45.166Z,88.07
2022-12-18T01:42:30.173Z,86.17
2022-12-18T01:45:15.499Z,79.63
2022-12-18T01:48:04.310Z,75.70
2022-12-18T01:50:49.566Z,95.07
2022-12-18T01:53:37.132Z,94.43
2022-12-18T01:56:23.284Z,87.13
2022-12-18T01:59:49.464Z,81.80
2022-12-18T02:02:45.506Z,75.70
2022-12-18T02:06:06.569Z,78.47
2022-12-18T02:09:07.860Z,73.77
2022-12-18T02:11:53.357Z,71.03
2022-12-18T02:14:53.339Z,71.07
2022-12-18T02:17:55.463Z,71.93
2022-12-18T02:20:48.685Z,54.70
2022-12-18T02:23:52.824Z,62.07
2022-12-18T02:26:47.836Z,68.90
2022-12-18T02:29:58.478Z,72.03
2022-12-18T02:32:51.218Z,70.60
2022-12-18T02:35:39.684Z,64.07
2022-12-18T02:38:26.718Z,67.67
2022-12-18T02:41:14.084Z,66.63
2022-12-18T02:44:09.947Z,64.83
2022-12-18T02:46:55.520Z,70.83
2022-12-18T02:50:06.452Z,77.53
2022-12-18T02:53:20.184Z,60.57
2022-12-18T02:56:16.520Z,61.97
2022-12-18T02:59:14.303Z,65.53
2022-12-18T03:02:24.850Z,67.20
2022-12-18T03:05:42.108Z,67.67
2022-12-18T03:08:32.794Z,70.03
2022-12-18T03:11:18.178Z,78.00
2022-12-18T03:14:06.627Z,69.90
2022-12-18T03:16:56.168Z,66.83
2022-12-18T03:19:43.936Z,69.37
2022-12-18T03:22:33.072Z,56.40
2022-12-18T03:25:20.132Z,64.40
2022-12-18T03:28:09.484Z,50.40
2022-12-18T03:30:59.492Z,46.97
2022-12-18T03:33:53.332Z,43.23
2022-12-18T03:36:38.491Z,46.37
2022-12-18T03:39:23.780Z,46.43
2022-12-18T03:42:21.624Z,44.50
2022-12-18T03:45:35.296Z,43.57
2022-12-18T03:48:30.468Z,62.80
2022-12-18T03:51:26.402Z,54.37
2022-12-18T03:54:13.224Z,52.80
2022-12-18T03:57:05.659Z,47.03
2022-12-18T03:59:57.091Z,52.53
2022-12-18T04:02:47.278Z,53.30
2022-12-18T04:05:35.452Z,48.07
2022-12-18T04:08:21.652Z,43.17
2022-12-18T04:11:07.998Z,42.97
2022-12-18T04:13:58.248Z,43.30
2022-12-18T04:16:43.952Z,42.00
2022-12-18T04:19:29.388Z,43.37
2022-12-18T04:22:14.736Z,42.20
2022-12-18T04:25:00.163Z,47.13
2022-12-18T04:27:45.777Z,42.37
2022-12-18T04:30:31.015Z,44.37
2022-12-18T04:33:19.632Z,45.00
2022-12-18T04:36:05.963Z,38.83
2022-12-18T04:38:51.393Z,35.10
2022-12-18T04:41:36.861Z,37.43
2022-12-18T04:44:22.065Z,35.33
2022-12-18T04:47:07.353Z,33.50
2022-12-18T04:49:52.669Z,33.63
2022-12-18T04:52:37.838Z,30.80
2022-12-18T04:55:26.568Z,33.23
2022-12-18T04:58:11.779Z,29.40
2022-12-18T05:00:57.052Z,27.40
2022-12-18T05:03:42.708Z,25.93
2022-12-18T05:06:28.562Z,25.50
2022-12-18T05:09:14.063Z,22.13
2022-12-18T05:11:59.689Z,23.67
2022-12-18T05:14:44.955Z,23.57
2022-12-18T05:17:30.244Z,21.70
2022-12-18T05:20:15.465Z,22.70
2022-12-18T05:23:00.652Z,21.60
2022-12-18T05:25:55.140Z,22.73
2022-12-18T05:28:40.733Z,24.70
2022-12-18T05:31:25.997Z,19.23
2022-12-18T05:34:11.199Z,23.03
2022-12-18T05:36:56.796Z,19.67
2022-12-18T05:39:43.848Z,25.30
2022-12-18T05:42:29.184Z,25.03
2022-12-18T05:45:14.395Z,24.70
2022-12-18T05:47:59.657Z,24.13
2022-12-18T05:50:46.235Z,26.33
2022-12-18T05:53:31.665Z,24.70
2022-12-18T05:56:20.217Z,24.27
2022-12-18T05:59:05.520Z,22.47
2022-12-18T06:01:50.935Z,23.23
2022-12-18T06:04:36.130Z,23.70
2022-12-18T06:07:21.522Z,24.53
2022-12-18T06:10:07.264Z,26.80
2022-12-18T06:12:52.314Z,24.50
2022-12-18T06:15:38.565Z,27.07
2022-12-18T06:18:24.123Z,23.73
2022-12-18T06:21:09.244Z,25.40
2022-12-18T06:23:54.746Z,24.63
2022-12-18T06:26:40.646Z,26.00
2022-12-18T06:29:26.634Z,25.70
2022-12-18T06:32:15.989Z,25.47
2022-12-18T06:35:04.825Z,27.53
2022-12-18T06:37:50.384Z,25.23
2022-12-18T06:40:38.964Z,25.73
2022-12-18T06:43:24.630Z,25.90
2022-12-18T06:46:11.318Z,24.60
2022-12-18T06:48:58.205Z,25.90
2022-12-18T06:51:43.567Z,25.97
2022-12-18T06:54:29.007Z,29.00
2022-12-18T06:57:15.015Z,26.33
2022-12-18T07:00:00.941Z,26.10
2022-12-18T07:02:46.326Z,24.43
2022-12-18T07:05:31.876Z,26.33
2022-12-18T07:08:17.434Z,26.60
2022-12-18T07:11:05.236Z,26.57
2022-12-18T07:13:51.031Z,26.37
2022-12-18T07:16:36.201Z,25.07
2022-12-18T07:19:25.139Z,25.87
2022-12-18T07:22:10.564Z,24.63
2022-12-18T07:24:55.910Z,27.97
2022-12-18T07:27:41.453Z,25.57
2022-12-18T07:30:26.644Z,32.23
2022-12-18T07:33:12.009Z,36.13
2022-12-18T07:35:57.160Z,31.77
2022-12-18T07:38:43.529Z,27.30
2022-12-18T07:41:29.149Z,26.60
2022-12-18T07:44:14.788Z,25.70
2022-12-18T07:47:00.397Z,25.57
2022-12-18T07:52:50.515Z,26.50
2022-12-18T07:56:17.812Z,26.97
2022-12-18T07:58:49.512Z,26.10
2022-12-18T08:01:35.127Z,26.67
2022-12-18T08:04:20.957Z,26.13
2022-12-18T08:07:06.532Z,24.67
2022-12-18T08:09:51.759Z,29.53
2022-12-18T08:12:37.156Z,26.33
2022-12-18T08:15:22.367Z,24.37
2022-12-18T08:21:15.612Z,24.33
2022-12-18T08:24:03.316Z,27.20
2022-12-18T08:29:47.716Z,23.87
2022-12-18T08:32:33.597Z,23.83
2022-12-18T08:35:18.917Z,22.17
2022-12-18T08:38:04.924Z,23.33
2022-12-18T08:40:50.510Z,25.00
2022-12-18T08:43:36.042Z,25.70
2022-12-18T08:46:32.680Z,24.37
2022-12-18T08:49:18.038Z,26.13
2022-12-18T08:52:04.037Z,25.33
2022-12-18T08:57:57.069Z,26.23
2022-12-18T09:00:44.549Z,26.60
2022-12-18T09:03:31.219Z,23.93
2022-12-18T09:09:19.358Z,25.90
2022-12-18T09:15:08.757Z,27.63
2022-12-18T09:24:27.646Z,63.70
2022-12-18T09:27:15.640Z,54.27
2022-12-18T09:30:01.408Z,24.70
2022-12-18T09:35:47.418Z,25.77
2022-12-18T09:38:33.136Z,27.13
2022-12-18T09:41:34.863Z,25.00
2022-12-18T09:44:52.902Z,27.00
2022-12-18T09:47:40.262Z,27.40
2022-12-18T09:50:33.020Z,29.43
2022-12-18T09:53:26.145Z,38.93
2022-12-18T09:56:19.903Z,37.20
2022-12-18T09:59:06.496Z,43.57
2022-12-18T10:01:52.532Z,37.87
2022-12-18T10:04:38.284Z,39.50
2022-12-18T10:07:49.064Z,40.33
2022-12-18T10:11:04.424Z,43.90
2022-12-18T10:13:57.127Z,40.90
2022-12-18T10:16:57.489Z,24.60
2022-12-18T10:19:48.455Z,22.50
2022-12-18T10:22:43.171Z,25.50
2022-12-18T10:26:05.092Z,50.67
2022-12-18T10:28:51.695Z,29.17
2022-12-18T10:31:38.750Z,22.53
2022-12-18T10:34:24.897Z,20.03
2022-12-18T10:37:18.024Z,23.80
2022-12-18T10:40:21.544Z,26.47
2022-12-18T10:43:16.175Z,21.67
2022-12-18T10:46:22.256Z,22.13
2022-12-18T10:49:20.505Z,22.20
2022-12-18T10:52:21.508Z,21.40
2022-12-18T10:55:18.541Z,20.30
2022-12-18T10:58:28.787Z,22.10
2022-12-18T11:01:49.817Z,21.57
2022-12-18T11:04:35.884Z,20.97
2022-12-18T11:07:21.624Z,20.43
2022-12-18T11:10:20.539Z,20.83
2022-12-18T11:13:21.656Z,21.43
2022-12-18T11:16:07.465Z,19.70
2022-12-18T11:18:53.139Z,20.40
2022-12-18T11:21:43.451Z,21.60
2022-12-18T11:24:34.653Z,21.60
2022-12-18T11:27:20.766Z,22.90
2022-12-18T11:30:15.461Z,20.43
2022-12-18T11:33:21.243Z,18.97
2022-12-18T11:36:11.381Z,20.03
2022-12-18T11:39:00.930Z,19.53
2022-12-18T11:42:22.633Z,22.07
2022-12-18T11:45:20.049Z,17.63
2022-12-18T11:48:28.636Z,19.17
2022-12-18T11:51:28.180Z,17.57
2022-12-18T11:54:15.134Z,105.93
2022-12-18T11:57:11.206Z,25.43
2022-12-18T12:00:11.815Z,16.87
2022-12-18T12:03:23.177Z,18.50
2022-12-18T12:06:09.030Z,18.83
2022-12-18T12:09:18.193Z,19.93
2022-12-18T12:12:32.931Z,18.70
2022-12-18T12:15:49.865Z,18.33
2022-12-18T12:19:02.793Z,19.77
2022-12-18T12:22:14.579Z,19.13
2022-12-18T12:25:21.419Z,17.57
2022-12-18T12:28:19.666Z,17.87
2022-12-18T12:31:24.562Z,18.40
2022-12-18T12:34:18.003Z,17.27
2022-12-18T12:37:23.993Z,16.97
2022-12-18T12:40:51.335Z,17.07
2022-12-18T12:43:43.331Z,19.00
2022-12-18T12:46:42.482Z,20.10
2022-12-18T12:49:37.544Z,23.73
2022-12-18T12:52:40.964Z,19.73
2022-12-18T12:55:29.244Z,18.20
2022-12-18T12:58:52.335Z,20.97
2022-12-18T13:01:58.347Z,18.60
2022-12-18T13:04:53.363Z,19.63
2022-12-18T13:07:51.160Z,20.17
2022-12-18T13:10:42.483Z,19.23
2022-12-18T13:13:54.805Z,17.77
2022-12-18T13:16:40.739Z,18.87
2022-12-18T13:19:27.727Z,18.43
2022-12-18T13:22:51.060Z,20.50
2022-12-18T13:25:38.938Z,19.73
2022-12-18T13:28:45.245Z,17.23
2022-12-18T13:31:40.656Z,18.63
2022-12-18T13:34:29.764Z,17.80
2022-12-18T13:37:43.729Z,17.73
2022-12-18T13:40:57.051Z,21.40
2022-12-18T13:43:47.495Z,17.83
2022-12-18T13:46:48.139Z,17.83
2022-12-18T13:49:44.524Z,16.63
2022-12-18T13:52:37.371Z,16.57
2022-12-18T13:55:23.859Z,16.03
2022-12-18T13:58:13.406Z,18.80
2022-12-18T14:01:04.985Z,19.30
2022-12-18T14:03:50.423Z,17.13
2022-12-18T14:06:36.904Z,19.50
2022-12-18T14:09:29.292Z,19.23
2022-12-18T14:12:22.859Z,17.60
2022-12-18T14:15:24.239Z,18.00
2022-12-18T14:46:35.743Z,17.47
2022-12-18T14:49:30.252Z,17.37
2022-12-18T14:52:29.042Z,17.00
2022-12-18T14:55:19.368Z,18.47
2022-12-18T14:58:05.846Z,18.77
2022-12-18T15:00:55.911Z,16.00
2022-12-18T15:03:44.977Z,18.93
2022-12-18T15:06:32.034Z,23.47
2022-12-18T15:09:26.450Z,21.23
2022-12-18T15:12:29.649Z,20.37
2022-12-18T15:15:33.977Z,17.80
2022-12-18T15:18:23.881Z,17.70
2022-12-18T15:21:19.585Z,18.73
2022-12-18T15:24:28.279Z,17.10
2022-12-18T15:27:49.515Z,19.50
2022-12-18T15:30:38.490Z,20.73
2022-12-18T15:33:31.586Z,17.60
2022-12-18T15:40:14.986Z,20.70
2022-12-18T15:46:34.618Z,22.40
2022-12-18T15:49:45.476Z,21.13
2022-12-18T15:53:03.892Z,18.90
2022-12-18T15:56:02.023Z,21.00
2022-12-18T15:59:14.556Z,21.57
2022-12-18T16:05:38.309Z,22.90
2022-12-18T16:08:25.905Z,22.23
2022-12-18T16:11:25.600Z,23.43
2022-12-18T16:18:02.841Z,22.60
2022-12-18T16:20:50.420Z,24.07
2022-12-18T16:23:49.012Z,25.90
2022-12-18T16:26:44.313Z,25.00
2022-12-18T16:29:30.664Z,25.67
2022-12-18T16:32:19.442Z,25.57
2022-12-18T16:35:05.617Z,26.90
2022-12-18T16:37:50.978Z,28.20
2022-12-18T16:40:36.900Z,29.07
2022-12-18T16:43:27.954Z,27.93
2022-12-18T16:46:16.878Z,26.00
2022-12-18T16:49:04.658Z,35.53
2022-12-18T16:51:50.177Z,25.23
2022-12-18T16:54:54.097Z,26.33
2022-12-18T16:57:40.485Z,26.20
2022-12-18T17:00:25.877Z,26.90
2022-12-18T17:03:11.438Z,26.20
2022-12-18T17:06:03.971Z,33.10
2022-12-18T17:08:55.897Z,29.53
2022-12-18T17:11:41.744Z,29.47
2022-12-18T17:14:27.565Z,29.63
2022-12-18T17:17:21.866Z,29.00
2022-12-18T17:20:09.223Z,30.37
2022-12-18T17:22:54.820Z,35.10
2022-12-18T17:25:41.755Z,28.03
2022-12-18T17:28:28.812Z,29.30
2022-12-18T17:31:17.574Z,30.03
2022-12-18T17:34:04.371Z,34.23
2022-12-18T17:36:53.437Z,32.53
2022-12-18T17:39:40.568Z,32.97
2022-12-18T17:42:26.445Z,32.10
2022-12-18T17:45:12.521Z,35.03
2022-12-18T17:48:01.771Z,36.17
2022-12-18T17:50:49.487Z,38.30
2022-12-18T17:53:37.609Z,36.80
2022-12-18T17:56:30.158Z,42.97
2022-12-18T17:59:17.503Z,36.27
2022-12-18T18:02:15.492Z,41.47
2022-12-18T18:05:07.792Z,42.40
2022-12-18T18:07:57.130Z,39.10
2022-12-18T18:10:42.788Z,41.57
2022-12-18T18:13:33.317Z,43.20
2022-12-18T18:16:22.425Z,40.47
2022-12-18T18:19:15.342Z,41.67
2022-12-18T18:22:01.287Z,43.47
2022-12-18T18:24:46.923Z,39.53
2022-12-18T18:27:38.235Z,41.93
2022-12-18T18:30:24.165Z,44.63
2022-12-18T18:33:11.972Z,45.07
2022-12-18T18:35:58.373Z,43.60
2022-12-18T18:38:48.199Z,43.13
2022-12-18T18:41:34.506Z,46.10
2022-12-18T18:44:21.933Z,45.17
2022-12-18T18:47:11.444Z,44.73
2022-12-18T18:49:59.171Z,46.07
2022-12-18T18:52:44.688Z,50.67
2022-12-18T18:55:33.706Z,47.90
2022-12-18T18:58:19.915Z,45.93
2022-12-18T19:01:09.680Z,49.17
2022-12-18T19:03:55.411Z,45.37
2022-12-18T19:06:40.763Z,51.20
2022-12-18T19:09:32.672Z,44.50
2022-12-18T19:12:28.034Z,44.97
2022-12-18T19:15:13.728Z,47.20
2022-12-18T19:18:00.225Z,48.43
2022-12-18T19:20:55.082Z,47.60
2022-12-18T19:23:41.375Z,49.30
2022-12-18T19:26:30.997Z,49.20
2022-12-18T19:29:19.970Z,48.43
2022-12-18T19:32:05.870Z,46.63
2022-12-18T19:35:11.726Z,45.57
2022-12-18T19:37:59.005Z,49.57
2022-12-18T19:40:45.014Z,48.20
2022-12-18T19:43:30.368Z,49.73
2022-12-18T19:46:23.009Z,52.53
2022-12-18T19:49:08.742Z,49.53
2022-12-18T19:51:56.725Z,53.37
2022-12-18T19:54:42.672Z,52.50
2022-12-18T19:57:29.755Z,52.70
2022-12-18T20:00:18.836Z,50.87
2022-12-18T20:03:16.018Z,50.33
2022-12-18T20:06:18.909Z,48.57
2022-12-18T20:09:06.539Z,50.53
2022-12-18T20:11:58.080Z,53.53
2022-12-18T20:14:55.948Z,49.43
2022-12-18T20:17:41.351Z,55.17
2022-12-18T20:20:27.064Z,52.60
2022-12-18T20:23:12.715Z,46.93
2022-12-18T20:26:00.321Z,55.63
2022-12-18T20:28:45.966Z,50.53
2022-12-18T20:31:34.740Z,52.10
2022-12-18T20:34:20.176Z,50.60
2022-12-18T20:37:05.878Z,53.60
2022-12-18T20:39:51.077Z,53.13
2022-12-18T20:42:37.585Z,53.33
2022-12-18T20:45:23.062Z,50.50
2022-12-18T20:48:08.342Z,50.67
2022-12-18T20:51:07.747Z,54.00
2022-12-18T20:54:08.010Z,54.40
2022-12-18T20:56:57.032Z,51.90
2022-12-18T20:59:47.984Z,53.70
2022-12-18T21:02:34.162Z,52.87
2022-12-18T21:05:19.502Z,54.53
2022-12-18T21:08:05.345Z,52.17
2022-12-18T21:10:50.804Z,50.60
2022-12-18T21:13:36.038Z,55.07
2022-12-18T21:16:21.291Z,53.50
2022-12-18T21:19:07.146Z,53.07
2022-12-18T21:21:54.274Z,56.07
2022-12-18T21:24:40.234Z,54.27
2022-12-18T21:27:28.158Z,52.37
2022-12-18T21:30:14.000Z,54.73
2022-12-18T21:33:03.674Z,53.17
2022-12-18T21:35:49.555Z,53.57
2022-12-18T21:38:39.202Z,54.90
2022-12-18T21:41:26.322Z,64.80
2022-12-18T21:44:15.262Z,54.90
2022-12-18T21:47:10.818Z,55.33
2022-12-18T21:50:06.639Z,53.03
2022-12-18T21:52:54.175Z,51.97
2022-12-18T21:55:39.986Z,54.67
2022-12-18T21:58:25.885Z,55.27
2022-12-18T22:01:11.201Z,57.43
2022-12-18T22:04:00.393Z,56.83
2022-12-18T22:06:48.984Z,55.90
2022-12-18T22:09:38.833Z,57.47
2022-12-18T22:12:26.960Z,55.47
2022-12-18T22:15:19.196Z,58.83
2022-12-18T22:18:10.013Z,54.00
2022-12-18T22:21:07.237Z,57.63
2022-12-18T22:24:03.868Z,54.73
2022-12-18T22:26:52.342Z,54.87
2022-12-18T22:29:41.817Z,51.27
2022-12-18T22:32:31.754Z,55.23
2022-12-18T22:35:24.669Z,56.10
2022-12-18T22:38:11.528Z,54.77
2022-12-18T22:41:00.096Z,53.20
2022-12-18T22:43:45.884Z,55.07
2022-12-18T22:46:37.671Z,59.00
2022-12-18T22:49:25.342Z,56.20
2022-12-18T22:52:10.648Z,56.63
2022-12-18T22:54:55.856Z,57.27
2022-12-18T22:57:46.502Z,59.43
2022-12-18T23:00:34.748Z,55.07
2022-12-18T23:03:19.933Z,57.00
2022-12-18T23:06:06.994Z,58.87
2022-12-18T23:08:56.826Z,60.87
2022-12-18T23:11:43.372Z,59.37
2022-12-18T23:14:31.565Z,57.07
2022-12-18T23:17:16.702Z,62.13
2022-12-18T23:20:02.080Z,59.07
2022-12-18T23:22:47.291Z,59.17
2022-12-18T23:25:32.899Z,61.23
2022-12-18T23:28:18.258Z,60.63
2022-12-18T23:31:28.108Z,57.50
2022-12-18T23:34:14.618Z,61.30
2022-12-18T23:37:00.253Z,58.50
2022-12-18T23:39:45.634Z,58.27
2022-12-18T23:42:31.069Z,65.17
2022-12-18T23:45:17.923Z,65.37
2022-12-18T23:48:03.926Z,70.73
2022-12-18T23:50:49.407Z,64.47
2022-12-18T23:53:35.779Z,65.10
2022-12-18T23:56:22.618Z,67.33
2022-12-18T23:59:08.015Z,67.60
